sensor_id;sensor_type;location;lat;lon;timestamp;P1;durP1;ratioP1;P2;durP2;ratioP2
41927;SDS011;27616;51.420;6.788;2022-09-14T00:00:46;4.03;;;1.30;;
41927;SDS011;27616;51.420;6.788;2022-09-14T00:03:13;4.85;;;1.48;;
41927;SDS011;27616;51.420;6.788;2022-09-14T00:05:39;6.10;;;1.67;;
41927;SDS011;27616;51.420;6.788;2022-09-14T00:08:05;4.88;;;1.67;;
41927;SDS011;27616;51.420;6.788;2022-09-14T00:10:31;4.55;;;1.33;;
41927;SDS011;27616;51.420;6.788;2022-09-14T00:12:57;4.00;;;1.20;;
41927;SDS011;27616;51.420;6.788;2022-09-14T00:15:24;3.65;;;1.52;;
41927;SDS011;27616;51.420;6.788;2022-09-14T00:17:50;5.18;;;1.58;;
41927;SDS011;27616;51.420;6.788;2022-09-14T00:20:16;6.53;;;1.60;;
41927;SDS011;27616;51.420;6.788;2022-09-14T00:22:42;7.13;;;1.38;;
41927;SDS011;27616;51.420;6.788;2022-09-14T00:25:08;3.35;;;1.27;;
41927;SDS011;27616;51.420;6.788;2022-09-14T00:27:34;4.63;;;1.60;;
41927;SDS011;27616;51.420;6.788;2022-09-14T00:30:00;3.85;;;1.30;;
41927;SDS011;27616;51.420;6.788;2022-09-14T00:32:26;4.20;;;1.30;;
41927;SDS011;27616;51.420;6.788;2022-09-14T00:34:52;7.88;;;1.70;;
41927;SDS011;27616;51.420;6.788;2022-09-14T00:37:17;5.55;;;1.50;;
41927;SDS011;27616;51.420;6.788;2022-09-14T00:39:43;7.68;;;1.65;;
41927;SDS011;27616;51.420;6.788;2022-09-14T00:42:09;7.68;;;1.80;;
41927;SDS011;27616;51.420;6.788;2022-09-14T00:47:06;7.15;;;1.50;;
41927;SDS011;27616;51.420;6.788;2022-09-14T00:49:36;5.45;;;1.25;;
41927;SDS011;27616;51.420;6.788;2022-09-14T00:54:46;8.13;;;1.50;;
41927;SDS011;27616;51.420;6.788;2022-09-14T00:57:14;4.78;;;1.33;;
41927;SDS011;27616;51.420;6.788;2022-09-14T00:59:41;3.92;;;1.20;;
41927;SDS011;27616;51.420;6.788;2022-09-14T01:02:09;3.33;;;1.17;;
41927;SDS011;27616;51.420;6.788;2022-09-14T01:04:39;5.72;;;1.25;;
41927;SDS011;27616;51.420;6.788;2022-09-14T01:07:11;4.70;;;1.30;;
41927;SDS011;27616;51.420;6.788;2022-09-14T01:15:12;4.90;;;1.50;;
41927;SDS011;27616;51.420;6.788;2022-09-14T01:18:26;5.22;;;1.50;;
41927;SDS011;27616;51.420;6.788;2022-09-14T01:20:38;4.60;;;1.25;;
41927;SDS011;27616;51.420;6.788;2022-09-14T01:31:19;5.70;;;1.70;;
41927;SDS011;27616;51.420;6.788;2022-09-14T01:34:05;7.35;;;1.50;;
41927;SDS011;27616;51.420;6.788;2022-09-14T01:36:35;5.50;;;1.40;;
41927;SDS011;27616;51.420;6.788;2022-09-14T01:41:30;3.80;;;1.10;;
41927;SDS011;27616;51.420;6.788;2022-09-14T01:44:01;7.00;;;1.50;;
41927;SDS011;27616;51.420;6.788;2022-09-14T01:46:39;7.45;;;1.50;;
41927;SDS011;27616;51.420;6.788;2022-09-14T01:52:21;7.68;;;2.15;;
41927;SDS011;27616;51.420;6.788;2022-09-14T01:54:59;6.57;;;1.75;;
41927;SDS011;27616;51.420;6.788;2022-09-14T01:57:41;10.17;;;2.27;;
41927;SDS011;27616;51.420;6.788;2022-09-14T02:00:20;4.63;;;1.63;;
41927;SDS011;27616;51.420;6.788;2022-09-14T02:02:53;6.68;;;1.27;;
41927;SDS011;27616;51.420;6.788;2022-09-14T02:07:58;7.00;;;1.50;;
41927;SDS011;27616;51.420;6.788;2022-09-14T02:10:24;7.28;;;1.52;;
41927;SDS011;27616;51.420;6.788;2022-09-14T02:12:52;11.85;;;1.92;;
41927;SDS011;27616;51.420;6.788;2022-09-14T02:15:18;8.55;;;1.60;;
41927;SDS011;27616;51.420;6.788;2022-09-14T02:17:45;6.45;;;1.70;;
41927;SDS011;27616;51.420;6.788;2022-09-14T02:20:20;6.45;;;1.60;;
41927;SDS011;27616;51.420;6.788;2022-09-14T02:22:56;9.00;;;1.65;;
41927;SDS011;27616;51.420;6.788;2022-09-14T02:25:22;4.53;;;1.67;;
41927;SDS011;27616;51.420;6.788;2022-09-14T02:27:48;8.98;;;2.10;;
41927;SDS011;27616;51.420;6.788;2022-09-14T02:30:15;6.68;;;1.88;;
41927;SDS011;27616;51.420;6.788;2022-09-14T02:38:25;4.68;;;1.50;;
41927;SDS011;27616;51.420;6.788;2022-09-14T02:41:37;7.38;;;1.83;;
41927;SDS011;27616;51.420;6.788;2022-09-14T02:49:37;9.10;;;2.30;;
41927;SDS011;27616;51.420;6.788;2022-09-14T02:52:14;10.43;;;1.90;;
41927;SDS011;27616;51.420;6.788;2022-09-14T02:57:30;8.05;;;1.60;;
41927;SDS011;27616;51.420;6.788;2022-09-14T02:59:57;8.77;;;1.70;;
41927;SDS011;27616;51.420;6.788;2022-09-14T03:02:22;5.85;;;1.55;;
41927;SDS011;27616;51.420;6.788;2022-09-14T03:04:48;9.20;;;1.77;;
41927;SDS011;27616;51.420;6.788;2022-09-14T03:07:14;9.75;;;1.90;;
41927;SDS011;27616;51.420;6.788;2022-09-14T03:09:40;11.23;;;1.70;;
41927;SDS011;27616;51.420;6.788;2022-09-14T03:12:06;9.00;;;1.80;;
41927;SDS011;27616;51.420;6.788;2022-09-14T03:14:32;8.07;;;2.03;;
41927;SDS011;27616;51.420;6.788;2022-09-14T03:16:58;9.75;;;1.60;;
41927;SDS011;27616;51.420;6.788;2022-09-14T03:19:24;8.45;;;2.10;;
41927;SDS011;27616;51.420;6.788;2022-09-14T03:21:50;5.82;;;1.58;;
41927;SDS011;27616;51.420;6.788;2022-09-14T03:24:16;9.75;;;2.25;;
41927;SDS011;27616;51.420;6.788;2022-09-14T03:26:42;7.15;;;2.08;;
41927;SDS011;27616;51.420;6.788;2022-09-14T03:29:10;8.98;;;2.35;;
41927;SDS011;27616;51.420;6.788;2022-09-14T03:31:35;8.45;;;1.90;;
41927;SDS011;27616;51.420;6.788;2022-09-14T03:34:01;9.82;;;2.40;;
41927;SDS011;27616;51.420;6.788;2022-09-14T03:36:28;7.30;;;1.90;;
41927;SDS011;27616;51.420;6.788;2022-09-14T03:38:56;5.43;;;1.45;;
41927;SDS011;27616;51.420;6.788;2022-09-14T03:41:23;10.57;;;2.00;;
41927;SDS011;27616;51.420;6.788;2022-09-14T03:43:49;6.03;;;1.90;;
41927;SDS011;27616;51.420;6.788;2022-09-14T03:46:18;6.72;;;1.50;;
41927;SDS011;27616;51.420;6.788;2022-09-14T03:48:45;7.70;;;2.38;;
41927;SDS011;27616;51.420;6.788;2022-09-14T03:51:12;7.82;;;1.80;;
41927;SDS011;27616;51.420;6.788;2022-09-14T03:53:39;4.97;;;1.70;;
41927;SDS011;27616;51.420;6.788;2022-09-14T03:56:09;9.32;;;1.67;;
41927;SDS011;27616;51.420;6.788;2022-09-14T03:58:40;8.20;;;1.50;;
41927;SDS011;27616;51.420;6.788;2022-09-14T04:01:07;9.13;;;1.90;;
41927;SDS011;27616;51.420;6.788;2022-09-14T04:06:02;10.90;;;2.28;;
41927;SDS011;27616;51.420;6.788;2022-09-14T04:08:30;8.13;;;1.98;;
41927;SDS011;27616;51.420;6.788;2022-09-14T04:10:57;4.33;;;1.50;;
41927;SDS011;27616;51.420;6.788;2022-09-14T04:13:23;8.98;;;1.60;;
41927;SDS011;27616;51.420;6.788;2022-09-14T04:15:56;4.47;;;1.45;;
41927;SDS011;27616;51.420;6.788;2022-09-14T04:18:23;8.88;;;1.70;;
41927;SDS011;27616;51.420;6.788;2022-09-14T04:20:53;6.55;;;1.60;;
41927;SDS011;27616;51.420;6.788;2022-09-14T04:23:23;9.88;;;2.88;;
41927;SDS011;27616;51.420;6.788;2022-09-14T04:25:50;7.85;;;1.95;;
41927;SDS011;27616;51.420;6.788;2022-09-14T04:28:16;7.75;;;1.77;;
41927;SDS011;27616;51.420;6.788;2022-09-14T04:30:43;6.07;;;1.38;;
41927;SDS011;27616;51.420;6.788;2022-09-14T04:33:09;8.30;;;1.75;;
41927;SDS011;27616;51.420;6.788;2022-09-14T04:35:35;8.18;;;1.80;;
41927;SDS011;27616;51.420;6.788;2022-09-14T04:38:02;4.85;;;1.25;;
41927;SDS011;27616;51.420;6.788;2022-09-14T04:40:28;8.60;;;1.63;;
41927;SDS011;27616;51.420;6.788;2022-09-14T04:42:55;9.15;;;1.90;;
41927;SDS011;27616;51.420;6.788;2022-09-14T04:45:21;7.25;;;1.92;;
41927;SDS011;27616;51.420;6.788;2022-09-14T04:47:47;10.10;;;1.73;;
41927;SDS011;27616;51.420;6.788;2022-09-14T04:50:13;8.60;;;1.63;;
41927;SDS011;27616;51.420;6.788;2022-09-14T04:52:39;9.02;;;2.58;;
41927;SDS011;27616;51.420;6.788;2022-09-14T04:55:05;7.63;;;1.75;;
41927;SDS011;27616;51.420;6.788;2022-09-14T04:57:31;9.75;;;2.40;;
41927;SDS011;27616;51.420;6.788;2022-09-14T04:59:57;7.68;;;1.88;;
41927;SDS011;27616;51.420;6.788;2022-09-14T05:02:23;11.88;;;2.70;;
41927;SDS011;27616;51.420;6.788;2022-09-14T05:04:51;9.68;;;2.58;;
41927;SDS011;27616;51.420;6.788;2022-09-14T05:07:17;6.85;;;2.10;;
41927;SDS011;27616;51.420;6.788;2022-09-14T05:09:42;7.40;;;1.60;;
41927;SDS011;27616;51.420;6.788;2022-09-14T05:12:08;4.97;;;1.67;;
41927;SDS011;27616;51.420;6.788;2022-09-14T05:14:34;15.15;;;2.80;;
41927;SDS011;27616;51.420;6.788;2022-09-14T05:17:00;5.75;;;1.90;;
41927;SDS011;27616;51.420;6.788;2022-09-14T05:19:27;6.35;;;1.90;;
41927;SDS011;27616;51.420;6.788;2022-09-14T05:21:53;5.57;;;2.00;;
41927;SDS011;27616;51.420;6.788;2022-09-14T05:24:19;9.52;;;2.10;;
41927;SDS011;27616;51.420;6.788;2022-09-14T05:26:45;10.05;;;2.28;;
41927;SDS011;27616;51.420;6.788;2022-09-14T05:29:12;7.85;;;2.53;;
41927;SDS011;27616;51.420;6.788;2022-09-14T05:31:39;8.93;;;2.70;;
41927;SDS011;27616;51.420;6.788;2022-09-14T05:34:05;11.25;;;3.40;;
41927;SDS011;27616;51.420;6.788;2022-09-14T05:36:34;8.52;;;2.55;;
41927;SDS011;27616;51.420;6.788;2022-09-14T05:39:01;5.97;;;1.98;;
41927;SDS011;27616;51.420;6.788;2022-09-14T05:41:27;7.72;;;2.05;;
41927;SDS011;27616;51.420;6.788;2022-09-14T05:43:53;8.10;;;2.10;;
41927;SDS011;27616;51.420;6.788;2022-09-14T05:46:20;10.93;;;2.75;;
41927;SDS011;27616;51.420;6.788;2022-09-14T05:48:46;7.50;;;2.60;;
41927;SDS011;27616;51.420;6.788;2022-09-14T05:51:16;6.53;;;1.77;;
41927;SDS011;27616;51.420;6.788;2022-09-14T05:53:48;9.57;;;2.10;;
41927;SDS011;27616;51.420;6.788;2022-09-14T05:56:17;13.27;;;2.83;;
41927;SDS011;27616;51.420;6.788;2022-09-14T05:58:44;8.27;;;1.83;;
41927;SDS011;27616;51.420;6.788;2022-09-14T06:01:11;8.52;;;1.88;;
41927;SDS011;27616;51.420;6.788;2022-09-14T06:03:46;12.00;;;2.50;;
41927;SDS011;27616;51.420;6.788;2022-09-14T06:06:13;7.60;;;2.00;;
41927;SDS011;27616;51.420;6.788;2022-09-14T06:08:41;10.18;;;2.08;;
41927;SDS011;27616;51.420;6.788;2022-09-14T06:11:12;8.20;;;1.77;;
41927;SDS011;27616;51.420;6.788;2022-09-14T06:13:40;4.93;;;1.40;;
41927;SDS011;27616;51.420;6.788;2022-09-14T06:16:07;8.70;;;2.08;;
41927;SDS011;27616;51.420;6.788;2022-09-14T06:18:35;7.10;;;2.00;;
41927;SDS011;27616;51.420;6.788;2022-09-14T06:21:02;7.70;;;1.90;;
41927;SDS011;27616;51.420;6.788;2022-09-14T06:23:29;8.57;;;1.80;;
41927;SDS011;27616;51.420;6.788;2022-09-14T06:25:56;7.72;;;1.83;;
41927;SDS011;27616;51.420;6.788;2022-09-14T06:28:24;6.82;;;2.03;;
41927;SDS011;27616;51.420;6.788;2022-09-14T06:30:50;5.22;;;1.98;;
41927;SDS011;27616;51.420;6.788;2022-09-14T06:33:17;7.88;;;2.40;;
41927;SDS011;27616;51.420;6.788;2022-09-14T06:35:52;9.05;;;2.30;;
41927;SDS011;27616;51.420;6.788;2022-09-14T06:38:19;10.98;;;2.88;;
41927;SDS011;27616;51.420;6.788;2022-09-14T06:40:51;11.93;;;2.75;;
41927;SDS011;27616;51.420;6.788;2022-09-14T06:43:22;9.35;;;2.40;;
41927;SDS011;27616;51.420;6.788;2022-09-14T06:45:59;6.55;;;2.60;;
41927;SDS011;27616;51.420;6.788;2022-09-14T06:48:28;10.80;;;2.13;;
41927;SDS011;27616;51.420;6.788;2022-09-14T06:50:56;6.00;;;1.95;;
41927;SDS011;27616;51.420;6.788;2022-09-14T06:53:22;9.52;;;2.63;;
41927;SDS011;27616;51.420;6.788;2022-09-14T06:55:48;7.82;;;2.22;;
41927;SDS011;27616;51.420;6.788;2022-09-14T06:58:14;6.32;;;2.22;;
41927;SDS011;27616;51.420;6.788;2022-09-14T07:00:40;10.07;;;2.95;;
41927;SDS011;27616;51.420;6.788;2022-09-14T07:03:07;8.88;;;2.65;;
41927;SDS011;27616;51.420;6.788;2022-09-14T07:05:38;5.97;;;2.40;;
41927;SDS011;27616;51.420;6.788;2022-09-14T07:08:04;10.23;;;2.55;;
41927;SDS011;27616;51.420;6.788;2022-09-14T07:10:30;7.70;;;2.60;;
41927;SDS011;27616;51.420;6.788;2022-09-14T07:12:59;7.80;;;2.33;;
41927;SDS011;27616;51.420;6.788;2022-09-14T07:17:51;8.35;;;2.50;;
41927;SDS011;27616;51.420;6.788;2022-09-14T07:20:18;8.38;;;2.72;;
41927;SDS011;27616;51.420;6.788;2022-09-14T07:22:43;9.68;;;3.40;;
41927;SDS011;27616;51.420;6.788;2022-09-14T07:25:09;10.45;;;3.15;;
41927;SDS011;27616;51.420;6.788;2022-09-14T07:27:36;7.45;;;2.63;;
41927;SDS011;27616;51.420;6.788;2022-09-14T07:30:04;8.20;;;2.97;;
41927;SDS011;27616;51.420;6.788;2022-09-14T07:32:31;11.32;;;2.55;;
41927;SDS011;27616;51.420;6.788;2022-09-14T07:34:57;9.07;;;2.80;;
41927;SDS011;27616;51.420;6.788;2022-09-14T07:37:23;8.68;;;2.88;;
41927;SDS011;27616;51.420;6.788;2022-09-14T07:39:49;9.13;;;3.00;;
41927;SDS011;27616;51.420;6.788;2022-09-14T07:42:15;12.82;;;3.70;;
41927;SDS011;27616;51.420;6.788;2022-09-14T07:44:41;10.77;;;3.10;;
41927;SDS011;27616;51.420;6.788;2022-09-14T07:47:07;6.75;;;2.60;;
41927;SDS011;27616;51.420;6.788;2022-09-14T07:49:33;7.40;;;2.60;;
41927;SDS011;27616;51.420;6.788;2022-09-14T07:51:59;6.40;;;2.53;;
41927;SDS011;27616;51.420;6.788;2022-09-14T07:54:25;8.68;;;2.90;;
41927;SDS011;27616;51.420;6.788;2022-09-14T07:56:51;5.53;;;2.10;;
41927;SDS011;27616;51.420;6.788;2022-09-14T07:59:16;8.63;;;2.72;;
41927;SDS011;27616;51.420;6.788;2022-09-14T08:01:43;6.38;;;2.17;;
41927;SDS011;27616;51.420;6.788;2022-09-14T08:04:09;10.68;;;2.88;;
41927;SDS011;27616;51.420;6.788;2022-09-14T08:06:35;7.65;;;2.60;;
41927;SDS011;27616;51.420;6.788;2022-09-14T08:09:04;8.88;;;3.45;;
41927;SDS011;27616;51.420;6.788;2022-09-14T08:11:31;8.00;;;2.42;;
41927;SDS011;27616;51.420;6.788;2022-09-14T08:14:00;7.03;;;2.63;;
41927;SDS011;27616;51.420;6.788;2022-09-14T08:16:31;6.80;;;2.28;;
41927;SDS011;27616;51.420;6.788;2022-09-14T08:18:59;8.32;;;3.00;;
41927;SDS011;27616;51.420;6.788;2022-09-14T08:21:27;7.45;;;2.60;;
41927;SDS011;27616;51.420;6.788;2022-09-14T08:23:55;7.03;;;2.30;;
41927;SDS011;27616;51.420;6.788;2022-09-14T08:26:26;9.07;;;2.60;;
41927;SDS011;27616;51.420;6.788;2022-09-14T08:28:53;7.65;;;2.72;;
41927;SDS011;27616;51.420;6.788;2022-09-14T08:31:20;10.38;;;2.60;;
41927;SDS011;27616;51.420;6.788;2022-09-14T08:33:58;12.02;;;2.78;;
41927;SDS011;27616;51.420;6.788;2022-09-14T08:36:31;7.27;;;2.20;;
41927;SDS011;27616;51.420;6.788;2022-09-14T08:38:59;7.70;;;2.05;;
41927;SDS011;27616;51.420;6.788;2022-09-14T08:46:45;6.72;;;2.10;;
41927;SDS011;27616;51.420;6.788;2022-09-14T08:49:38;5.57;;;2.00;;
41927;SDS011;27616;51.420;6.788;2022-09-14T08:52:30;6.18;;;2.03;;
41927;SDS011;27616;51.420;6.788;2022-09-14T08:58:17;9.68;;;2.30;;
41927;SDS011;27616;51.420;6.788;2022-09-14T09:01:01;6.60;;;1.85;;
41927;SDS011;27616;51.420;6.788;2022-09-14T09:04:07;8.50;;;2.28;;
41927;SDS011;27616;51.420;6.788;2022-09-14T09:12:13;8.48;;;2.35;;
41927;SDS011;27616;51.420;6.788;2022-09-14T09:14:46;7.32;;;2.13;;
41927;SDS011;27616;51.420;6.788;2022-09-14T09:17:28;5.03;;;1.73;;
41927;SDS011;27616;51.420;6.788;2022-09-14T09:20:17;10.05;;;2.30;;
41927;SDS011;27616;51.420;6.788;2022-09-14T09:25:57;4.78;;;1.95;;
41927;SDS011;27616;51.420;6.788;2022-09-14T09:28:30;7.22;;;2.25;;
41927;SDS011;27616;51.420;6.788;2022-09-14T09:30:59;9.45;;;2.30;;
41927;SDS011;27616;51.420;6.788;2022-09-14T09:33:49;7.25;;;2.30;;
41927;SDS011;27616;51.420;6.788;2022-09-14T09:36:19;6.15;;;2.50;;
41927;SDS011;27616;51.420;6.788;2022-09-14T09:38:45;6.55;;;2.20;;
41927;SDS011;27616;51.420;6.788;2022-09-14T09:41:24;6.95;;;2.40;;
41927;SDS011;27616;51.420;6.788;2022-09-14T09:44:02;8.95;;;2.63;;
41927;SDS011;27616;51.420;6.788;2022-09-14T09:46:37;7.88;;;2.38;;
41927;SDS011;27616;51.420;6.788;2022-09-14T09:49:23;5.53;;;2.10;;
41927;SDS011;27616;51.420;6.788;2022-09-14T09:52:07;7.00;;;2.88;;
41927;SDS011;27616;51.420;6.788;2022-09-14T09:54:42;7.72;;;2.58;;
41927;SDS011;27616;51.420;6.788;2022-09-14T09:57:20;8.43;;;2.83;;
41927;SDS011;27616;51.420;6.788;2022-09-14T10:00:07;6.93;;;2.63;;
41927;SDS011;27616;51.420;6.788;2022-09-14T10:02:37;7.57;;;3.10;;
41927;SDS011;27616;51.420;6.788;2022-09-14T10:10:15;7.20;;;2.33;;
41927;SDS011;27616;51.420;6.788;2022-09-14T10:12:48;6.90;;;2.42;;
41927;SDS011;27616;51.420;6.788;2022-09-14T10:15:19;5.47;;;2.10;;
41927;SDS011;27616;51.420;6.788;2022-09-14T10:20:22;6.57;;;2.30;;
41927;SDS011;27616;51.420;6.788;2022-09-14T10:22:49;5.68;;;2.38;;
41927;SDS011;27616;51.420;6.788;2022-09-14T10:27:48;5.90;;;2.53;;
41927;SDS011;27616;51.420;6.788;2022-09-14T10:33:21;6.28;;;2.30;;
41927;SDS011;27616;51.420;6.788;2022-09-14T10:39:05;6.15;;;2.50;;
41927;SDS011;27616;51.420;6.788;2022-09-14T10:49:35;6.95;;;2.55;;
41927;SDS011;27616;51.420;6.788;2022-09-14T11:05:10;7.20;;;2.80;;
41927;SDS011;27616;51.420;6.788;2022-09-14T11:10:23;7.10;;;3.00;;
41927;SDS011;27616;51.420;6.788;2022-09-14T11:13:01;5.82;;;2.83;;
41927;SDS011;27616;51.420;6.788;2022-09-14T11:20:59;4.45;;;2.78;;
41927;SDS011;27616;51.420;6.788;2022-09-14T11:26:44;6.32;;;3.20;;
41927;SDS011;27616;51.420;6.788;2022-09-14T11:34:32;9.88;;;4.38;;
41927;SDS011;27616;51.420;6.788;2022-09-14T11:37:12;5.45;;;3.83;;
41927;SDS011;27616;51.420;6.788;2022-09-14T11:39:47;7.03;;;3.70;;
41927;SDS011;27616;51.420;6.788;2022-09-14T11:42:32;6.03;;;3.40;;
41927;SDS011;27616;51.420;6.788;2022-09-14T11:45:06;5.90;;;3.28;;
41927;SDS011;27616;51.420;6.788;2022-09-14T11:47:43;5.75;;;3.10;;
41927;SDS011;27616;51.420;6.788;2022-09-14T11:52:45;5.33;;;2.50;;
41927;SDS011;27616;51.420;6.788;2022-09-14T11:55:16;5.78;;;1.83;;
41927;SDS011;27616;51.420;6.788;2022-09-14T11:57:43;3.40;;;1.77;;
41927;SDS011;27616;51.420;6.788;2022-09-14T12:05:30;5.47;;;2.50;;
41927;SDS011;27616;51.420;6.788;2022-09-14T12:07:58;4.68;;;2.58;;
41927;SDS011;27616;51.420;6.788;2022-09-14T12:10:26;5.80;;;2.10;;
41927;SDS011;27616;51.420;6.788;2022-09-14T12:12:52;5.32;;;1.90;;
41927;SDS011;27616;51.420;6.788;2022-09-14T12:15:41;4.13;;;1.63;;
41927;SDS011;27616;51.420;6.788;2022-09-14T12:23:24;4.28;;;1.70;;
41927;SDS011;27616;51.420;6.788;2022-09-14T12:25:59;3.95;;;1.80;;
41927;SDS011;27616;51.420;6.788;2022-09-14T12:28:36;3.85;;;1.45;;
41927;SDS011;27616;51.420;6.788;2022-09-14T12:35:59;4.15;;;1.50;;
41927;SDS011;27616;51.420;6.788;2022-09-14T12:40:55;7.82;;;4.47;;
41927;SDS011;27616;51.420;6.788;2022-09-14T12:51:35;3.20;;;1.65;;
41927;SDS011;27616;51.420;6.788;2022-09-14T12:54:26;3.28;;;1.23;;
41927;SDS011;27616;51.420;6.788;2022-09-14T12:57:28;2.03;;;1.00;;
41927;SDS011;27616;51.420;6.788;2022-09-14T13:00:00;3.40;;;1.00;;
41927;SDS011;27616;51.420;6.788;2022-09-14T13:05:26;2.70;;;1.30;;
41927;SDS011;27616;51.420;6.788;2022-09-14T13:07:53;2.58;;;1.20;;
41927;SDS011;27616;51.420;6.788;2022-09-14T13:12:55;4.55;;;1.55;;
41927;SDS011;27616;51.420;6.788;2022-09-14T13:15:31;6.07;;;1.98;;
41927;SDS011;27616;51.420;6.788;2022-09-14T13:18:03;4.20;;;1.70;;
41927;SDS011;27616;51.420;6.788;2022-09-14T13:20:32;2.92;;;1.40;;
41927;SDS011;27616;51.420;6.788;2022-09-14T13:27:58;4.28;;;1.30;;
41927;SDS011;27616;51.420;6.788;2022-09-14T13:30:26;3.92;;;1.10;;
41927;SDS011;27616;51.420;6.788;2022-09-14T13:32:54;3.47;;;1.27;;
41927;SDS011;27616;51.420;6.788;2022-09-14T13:37:59;4.15;;;1.27;;
41927;SDS011;27616;51.420;6.788;2022-09-14T13:40:34;2.75;;;1.20;;
41927;SDS011;27616;51.420;6.788;2022-09-14T13:43:00;3.55;;;1.42;;
41927;SDS011;27616;51.420;6.788;2022-09-14T13:45:26;6.22;;;1.70;;
41927;SDS011;27616;51.420;6.788;2022-09-14T13:47:52;2.72;;;1.33;;
41927;SDS011;27616;51.420;6.788;2022-09-14T13:50:21;5.47;;;1.77;;
41927;SDS011;27616;51.420;6.788;2022-09-14T13:52:49;4.13;;;2.20;;
41927;SDS011;27616;51.420;6.788;2022-09-14T14:03:31;5.57;;;1.95;;
41927;SDS011;27616;51.420;6.788;2022-09-14T14:05:58;5.15;;;1.90;;
41927;SDS011;27616;51.420;6.788;2022-09-14T14:08:27;4.88;;;1.77;;
41927;SDS011;27616;51.420;6.788;2022-09-14T14:11:03;4.57;;;1.65;;
41927;SDS011;27616;51.420;6.788;2022-09-14T14:13:31;3.97;;;1.77;;
41927;SDS011;27616;51.420;6.788;2022-09-14T14:16:12;4.57;;;1.70;;
41927;SDS011;27616;51.420;6.788;2022-09-14T14:18:56;5.30;;;2.22;;
41927;SDS011;27616;51.420;6.788;2022-09-14T14:26:53;3.88;;;1.90;;
41927;SDS011;27616;51.420;6.788;2022-09-14T14:29:20;3.70;;;1.98;;
41927;SDS011;27616;51.420;6.788;2022-09-14T14:31:47;5.47;;;1.60;;
41927;SDS011;27616;51.420;6.788;2022-09-14T14:34:23;4.10;;;1.90;;
41927;SDS011;27616;51.420;6.788;2022-09-14T14:36:51;3.80;;;2.10;;
41927;SDS011;27616;51.420;6.788;2022-09-14T14:39:18;5.90;;;1.80;;
41927;SDS011;27616;51.420;6.788;2022-09-14T14:41:45;5.18;;;1.98;;
41927;SDS011;27616;51.420;6.788;2022-09-14T14:44:14;3.67;;;1.60;;
41927;SDS011;27616;51.420;6.788;2022-09-14T14:46:42;5.38;;;2.22;;
41927;SDS011;27616;51.420;6.788;2022-09-14T14:49:10;5.00;;;2.20;;
41927;SDS011;27616;51.420;6.788;2022-09-14T14:51:37;4.50;;;1.67;;
41927;SDS011;27616;51.420;6.788;2022-09-14T14:54:03;7.03;;;3.05;;
41927;SDS011;27616;51.420;6.788;2022-09-14T14:56:30;5.53;;;2.15;;
41927;SDS011;27616;51.420;6.788;2022-09-14T14:58:56;5.30;;;2.35;;
41927;SDS011;27616;51.420;6.788;2022-09-14T15:01:22;3.78;;;2.00;;
41927;SDS011;27616;51.420;6.788;2022-09-14T15:03:48;4.05;;;2.00;;
41927;SDS011;27616;51.420;6.788;2022-09-14T15:06:17;4.93;;;2.15;;
41927;SDS011;27616;51.420;6.788;2022-09-14T15:08:46;5.60;;;2.00;;
41927;SDS011;27616;51.420;6.788;2022-09-14T15:11:13;4.07;;;1.90;;
41927;SDS011;27616;51.420;6.788;2022-09-14T15:13:42;5.03;;;1.90;;
41927;SDS011;27616;51.420;6.788;2022-09-14T15:16:08;6.25;;;2.13;;
41927;SDS011;27616;51.420;6.788;2022-09-14T15:18:34;7.03;;;2.90;;
41927;SDS011;27616;51.420;6.788;2022-09-14T15:21:00;9.68;;;4.28;;
41927;SDS011;27616;51.420;6.788;2022-09-14T15:23:26;6.15;;;3.30;;
41927;SDS011;27616;51.420;6.788;2022-09-14T15:25:52;5.15;;;2.42;;
41927;SDS011;27616;51.420;6.788;2022-09-14T15:28:18;5.10;;;2.42;;
41927;SDS011;27616;51.420;6.788;2022-09-14T15:30:44;7.57;;;2.63;;
41927;SDS011;27616;51.420;6.788;2022-09-14T15:33:10;4.78;;;2.13;;
41927;SDS011;27616;51.420;6.788;2022-09-14T15:35:36;5.20;;;2.00;;
41927;SDS011;27616;51.420;6.788;2022-09-14T15:38:03;6.18;;;2.80;;
41927;SDS011;27616;51.420;6.788;2022-09-14T15:40:29;4.80;;;2.20;;
41927;SDS011;27616;51.420;6.788;2022-09-14T15:42:56;5.53;;;2.72;;
41927;SDS011;27616;51.420;6.788;2022-09-14T15:45:22;8.88;;;4.47;;
41927;SDS011;27616;51.420;6.788;2022-09-14T15:47:48;9.32;;;3.40;;
41927;SDS011;27616;51.420;6.788;2022-09-14T15:50:13;6.00;;;2.65;;
41927;SDS011;27616;51.420;6.788;2022-09-14T15:52:40;8.07;;;3.00;;
41927;SDS011;27616;51.420;6.788;2022-09-14T15:55:07;7.45;;;2.72;;
41927;SDS011;27616;51.420;6.788;2022-09-14T15:57:35;6.20;;;2.70;;
41927;SDS011;27616;51.420;6.788;2022-09-14T16:00:07;6.53;;;3.10;;
41927;SDS011;27616;51.420;6.788;2022-09-14T16:02:41;6.13;;;2.78;;
41927;SDS011;27616;51.420;6.788;2022-09-14T16:05:07;7.95;;;2.63;;
41927;SDS011;27616;51.420;6.788;2022-09-14T16:07:33;6.28;;;2.88;;
41927;SDS011;27616;51.420;6.788;2022-09-14T16:09:59;7.20;;;3.10;;
41927;SDS011;27616;51.420;6.788;2022-09-14T16:12:25;7.30;;;2.95;;
41927;SDS011;27616;51.420;6.788;2022-09-14T16:14:51;5.57;;;3.13;;
41927;SDS011;27616;51.420;6.788;2022-09-14T16:17:17;8.10;;;3.00;;
41927;SDS011;27616;51.420;6.788;2022-09-14T16:19:43;6.15;;;2.72;;
41927;SDS011;27616;51.420;6.788;2022-09-14T16:22:09;7.10;;;2.92;;
41927;SDS011;27616;51.420;6.788;2022-09-14T16:24:35;6.40;;;2.53;;
41927;SDS011;27616;51.420;6.788;2022-09-14T16:27:01;5.03;;;2.38;;
41927;SDS011;27616;51.420;6.788;2022-09-14T16:29:27;5.05;;;2.63;;
41927;SDS011;27616;51.420;6.788;2022-09-14T16:31:53;6.40;;;2.72;;
41927;SDS011;27616;51.420;6.788;2022-09-14T16:36:46;6.55;;;2.78;;
41927;SDS011;27616;51.420;6.788;2022-09-14T16:39:14;6.30;;;2.53;;
41927;SDS011;27616;51.420;6.788;2022-09-14T16:41:42;4.35;;;2.15;;
41927;SDS011;27616;51.420;6.788;2022-09-14T16:44:09;7.85;;;3.00;;
41927;SDS011;27616;51.420;6.788;2022-09-14T16:46:38;7.07;;;3.67;;
41927;SDS011;27616;51.420;6.788;2022-09-14T16:49:04;4.53;;;2.13;;
41927;SDS011;27616;51.420;6.788;2022-09-14T16:51:30;6.13;;;3.15;;
41927;SDS011;27616;51.420;6.788;2022-09-14T16:53:57;8.23;;;4.18;;
41927;SDS011;27616;51.420;6.788;2022-09-14T16:56:25;8.10;;;3.70;;
41927;SDS011;27616;51.420;6.788;2022-09-14T16:58:54;6.15;;;2.42;;
41927;SDS011;27616;51.420;6.788;2022-09-14T17:01:33;6.30;;;2.42;;
41927;SDS011;27616;51.420;6.788;2022-09-14T17:04:05;4.80;;;2.25;;
41927;SDS011;27616;51.420;6.788;2022-09-14T17:06:34;5.28;;;2.05;;
41927;SDS011;27616;51.420;6.788;2022-09-14T17:09:06;6.23;;;2.20;;
41927;SDS011;27616;51.420;6.788;2022-09-14T17:11:34;8.05;;;2.70;;
41927;SDS011;27616;51.420;6.788;2022-09-14T17:14:01;7.30;;;2.53;;
41927;SDS011;27616;51.420;6.788;2022-09-14T17:16:28;5.60;;;2.78;;
41927;SDS011;27616;51.420;6.788;2022-09-14T17:19:01;7.05;;;2.78;;
41927;SDS011;27616;51.420;6.788;2022-09-14T17:21:30;9.35;;;3.17;;
41927;SDS011;27616;51.420;6.788;2022-09-14T17:23:58;6.75;;;3.30;;
41927;SDS011;27616;51.420;6.788;2022-09-14T17:26:26;7.50;;;3.60;;
41927;SDS011;27616;51.420;6.788;2022-09-14T17:28:53;6.95;;;3.60;;
41927;SDS011;27616;51.420;6.788;2022-09-14T17:31:21;4.32;;;3.00;;
41927;SDS011;27616;51.420;6.788;2022-09-14T17:33:51;6.90;;;3.30;;
41927;SDS011;27616;51.420;6.788;2022-09-14T17:38:44;5.47;;;2.88;;
41927;SDS011;27616;51.420;6.788;2022-09-14T17:41:11;6.13;;;3.45;;
41927;SDS011;27616;51.420;6.788;2022-09-14T17:43:39;5.97;;;2.67;;
41927;SDS011;27616;51.420;6.788;2022-09-14T17:46:06;5.53;;;2.92;;
41927;SDS011;27616;51.420;6.788;2022-09-14T17:48:37;6.97;;;2.88;;
41927;SDS011;27616;51.420;6.788;2022-09-14T17:51:23;6.67;;;2.43;;
41927;SDS011;27616;51.420;6.788;2022-09-14T17:53:51;5.97;;;2.80;;
41927;SDS011;27616;51.420;6.788;2022-09-14T17:56:20;3.92;;;2.10;;